createdAt,value
2023-02-03T00:00:31.921Z,95.07
2023-02-03T00:05:55.115Z,94.64
2023-02-03T00:10:59.114Z,94.31
2023-02-03T00:16:02.064Z,94.31
2023-02-03T00:21:05.830Z,94.69
2023-02-03T00:26:18.723Z,94.67
2023-02-03T00:31:24.623Z,94.78
2023-02-03T00:36:27.402Z,94.51
2023-02-03T00:41:33.773Z,94.55
2023-02-03T00:46:36.461Z,94.62
2023-02-03T00:51:39.095Z,94.92
2023-02-03T00:56:41.946Z,95.03
2023-02-03T01:01:44.590Z,95.04
2023-02-03T01:06:47.139Z,95.13
2023-02-03T01:11:50.172Z,95.07
2023-02-03T01:16:52.813Z,95.05
2023-02-03T01:21:55.504Z,95.31
2023-02-03T01:26:58.096Z,95.50
2023-02-03T01:32:01.388Z,95.74
2023-02-03T01:37:04.073Z,95.80
2023-02-03T01:42:09.470Z,95.76
2023-02-03T01:47:30.640Z,95.83
2023-02-03T01:52:34.152Z,95.90
2023-02-03T01:57:52.271Z,96.17
2023-02-03T02:02:59.149Z,96.19
2023-02-03T02:08:03.880Z,96.44
2023-02-03T02:13:06.967Z,96.28
2023-02-03T02:18:39.530Z,96.34
2023-02-03T02:23:59.973Z,96.38
2023-02-03T02:29:40.590Z,96.42
2023-02-03T02:34:57.714Z,96.59
2023-02-03T02:40:00.241Z,96.91
2023-02-03T02:45:15.175Z,97.13
2023-02-03T02:50:28.410Z,97.19
2023-02-03T02:55:34.129Z,97.33
2023-02-03T03:00:37.079Z,97.28
2023-02-03T03:05:43.387Z,97.21
2023-02-03T03:10:47.804Z,96.75
2023-02-03T03:15:54.021Z,96.65
2023-02-03T03:21:05.882Z,96.75
2023-02-03T03:26:14.570Z,96.95
2023-02-03T03:31:20.057Z,97.28
2023-02-03T03:36:45.644Z,97.62
2023-02-03T03:41:50.827Z,97.60
2023-02-03T03:47:04.329Z,97.62
2023-02-03T03:52:10.461Z,97.69
2023-02-03T03:57:26.752Z,97.72
2023-02-03T04:02:30.461Z,97.65
2023-02-03T04:07:42.636Z,97.46
2023-02-03T04:12:45.198Z,97.66
2023-02-03T04:17:50.113Z,97.47
2023-02-03T04:22:52.850Z,97.79
2023-02-03T04:27:56.213Z,98.14
2023-02-03T04:32:58.957Z,98.28
2023-02-03T04:38:01.833Z,97.94
2023-02-03T04:43:07.881Z,97.91
2023-02-03T04:48:10.583Z,97.92
2023-02-03T04:53:15.129Z,98.00
2023-02-03T04:58:18.629Z,97.97
2023-02-03T05:03:22.605Z,97.91
2023-02-03T05:08:26.776Z,98.15
2023-02-03T05:13:31.363Z,98.55
2023-02-03T05:18:33.963Z,98.82
2023-02-03T05:23:36.944Z,98.78
2023-02-03T05:28:39.742Z,98.63
2023-02-03T05:33:42.341Z,98.88
2023-02-03T05:38:45.047Z,98.61
2023-02-03T05:43:47.655Z,98.75
2023-02-03T05:48:50.345Z,98.90
2023-02-03T05:53:53.689Z,99.00
2023-02-03T05:58:56.345Z,99.25
2023-02-03T06:03:59.751Z,99.45
2023-02-03T06:09:04.742Z,99.65
2023-02-03T06:14:07.289Z,99.69
2023-02-03T06:19:10.202Z,99.78
2023-02-03T06:24:12.904Z,99.70
2023-02-03T06:29:15.532Z,99.67
2023-02-03T06:34:18.153Z,99.75
2023-02-03T06:39:20.784Z,99.76
2023-02-03T06:44:23.350Z,99.88
2023-02-03T06:49:25.915Z,99.61
2023-02-03T06:54:28.499Z,99.49
2023-02-03T06:59:31.199Z,99.27
2023-02-03T07:04:33.758Z,98.99
2023-02-03T07:09:36.412Z,98.62
2023-02-03T07:14:39.424Z,97.73
2023-02-03T07:19:42.043Z,97.27
2023-02-03T07:24:44.698Z,96.91
2023-02-03T07:29:47.250Z,96.62
2023-02-03T07:34:49.843Z,96.31
2023-02-03T07:39:52.420Z,95.97
2023-02-03T07:44:54.987Z,95.62
2023-02-03T07:49:57.695Z,95.33
2023-02-03T07:55:00.419Z,94.73
2023-02-03T08:00:04.528Z,94.40
2023-02-03T08:05:07.878Z,93.69
2023-02-03T08:10:13.096Z,92.89
2023-02-03T08:15:15.851Z,92.34
2023-02-03T08:20:20.016Z,92.00
2023-02-03T08:25:22.917Z,91.35
2023-02-03T08:30:26.967Z,91.06
2023-02-03T08:35:30.071Z,90.22
2023-02-03T08:40:32.627Z,90.12
2023-02-03T08:45:35.260Z,89.18
2023-02-03T08:50:37.939Z,89.02
2023-02-03T08:55:40.553Z,89.13
2023-02-03T09:00:43.633Z,88.87
2023-02-03T09:05:46.390Z,88.81
2023-02-03T09:10:49.051Z,88.81
2023-02-03T09:15:52.052Z,88.23
2023-02-03T09:21:13.899Z,87.73
2023-02-03T09:26:23.614Z,87.23
2023-02-03T09:31:26.294Z,87.04
2023-02-03T09:36:29.223Z,86.52
2023-02-03T09:41:36.522Z,85.65
2023-02-03T09:46:46.327Z,85.86
2023-02-03T09:52:02.483Z,85.79
2023-02-03T09:57:24.071Z,85.82
2023-02-03T10:03:04.636Z,85.21
2023-02-03T10:08:21.929Z,85.35
2023-02-03T10:13:38.044Z,85.11
2023-02-03T10:18:51.371Z,85.29
2023-02-03T10:23:56.979Z,84.57
2023-02-03T10:29:14.494Z,84.40
2023-02-03T10:34:19.700Z,84.49
2023-02-03T10:39:51.973Z,84.53
2023-02-03T10:45:01.426Z,84.29
2023-02-03T10:50:16.682Z,84.17
2023-02-03T10:55:26.225Z,84.04
2023-02-03T11:00:31.997Z,83.88
2023-02-03T11:05:35.316Z,83.33
2023-02-03T11:10:40.710Z,83.58
2023-02-03T11:16:03.928Z,83.37
2023-02-03T11:21:22.643Z,83.55
2023-02-03T11:26:30.830Z,82.97
2023-02-03T11:31:36.500Z,82.90
2023-02-03T11:36:39.554Z,83.26
2023-02-03T11:41:42.198Z,83.47
2023-02-03T11:46:48.359Z,84.26
2023-02-03T11:51:57.654Z,84.94
2023-02-03T11:57:18.990Z,85.38
2023-02-03T12:02:31.153Z,85.84
2023-02-03T12:08:11.613Z,86.05
2023-02-03T12:13:35.905Z,86.82
2023-02-03T12:19:16.334Z,87.15
2023-02-03T12:24:45.533Z,87.58
2023-02-03T12:29:56.775Z,87.81
2023-02-03T12:35:26.631Z,88.10
2023-02-03T12:40:36.831Z,88.53
2023-02-03T12:45:41.539Z,88.87
2023-02-03T12:50:50.413Z,89.15
2023-02-03T12:56:11.635Z,89.30
2023-02-03T13:01:23.492Z,89.34
2023-02-03T13:06:44.355Z,89.67
2023-02-03T13:12:12.172Z,90.15
2023-02-03T13:17:26.908Z,90.57
2023-02-03T13:22:29.608Z,90.78
2023-02-03T13:27:41.609Z,90.93
2023-02-03T13:32:49.980Z,91.24
2023-02-03T13:38:14.138Z,91.82
2023-02-03T13:43:39.025Z,92.01
2023-02-03T13:48:45.713Z,92.31
2023-02-03T13:53:50.832Z,92.65
2023-02-03T13:59:14.929Z,93.09
2023-02-03T14:04:23.618Z,93.62
2023-02-03T14:09:35.352Z,94.07
2023-02-03T14:14:38.045Z,94.16
2023-02-03T14:20:27.426Z,94.26
2023-02-03T14:25:32.650Z,94.50
2023-02-03T14:31:21.460Z,94.93
2023-02-03T14:36:45.815Z,95.22
2023-02-03T14:41:54.610Z,95.72
2023-02-03T14:47:13.651Z,96.65
2023-02-03T14:52:38.045Z,97.37
2023-02-03T14:58:01.584Z,97.89
2023-02-03T15:03:10.186Z,98.86
2023-02-03T15:08:33.549Z,99.55
2023-02-03T15:13:36.543Z,99.85
2023-02-03T15:18:42.075Z,99.94
2023-02-03T15:23:48.460Z,100.00
2023-02-03T15:28:54.982Z,100.00
2023-02-03T15:34:05.008Z,100.00
2023-02-03T15:39:32.278Z,100.00
2023-02-03T15:45:05.759Z,100.00
2023-02-03T15:50:47.385Z,100.00
2023-02-03T15:55:56.672Z,100.00
2023-02-03T16:01:02.404Z,100.00
2023-02-03T16:06:25.569Z,100.00
2023-02-03T16:11:39.250Z,100.00
2023-02-03T16:17:05.032Z,100.00
2023-02-03T16:22:32.312Z,100.00
2023-02-03T16:27:35.064Z,100.00
2023-02-03T16:32:56.501Z,99.87
2023-02-03T16:38:33.519Z,99.73
2023-02-03T16:43:55.133Z,99.73
2023-02-03T16:49:17.537Z,99.58
2023-02-03T16:54:21.477Z,99.42
2023-02-03T16:59:24.608Z,99.18
2023-02-03T17:04:27.281Z,98.75
2023-02-03T17:09:34.875Z,98.50
2023-02-03T17:14:37.852Z,98.26
2023-02-03T17:19:40.548Z,98.07
2023-02-03T17:24:43.184Z,97.87
2023-02-03T17:29:46.949Z,97.46
2023-02-03T17:34:49.579Z,96.90
2023-02-03T17:55:19.979Z,96.72
2023-02-03T18:00:22.686Z,96.77
2023-02-03T18:05:25.507Z,96.53
2023-02-03T18:10:29.008Z,96.55
2023-02-03T18:15:33.195Z,96.71
2023-02-03T18:20:35.969Z,96.49
2023-02-03T18:25:38.663Z,96.38
2023-02-03T18:30:41.437Z,96.56
2023-02-03T18:35:44.756Z,96.23
2023-02-03T18:40:47.601Z,96.04
2023-02-03T18:45:50.777Z,96.00
2023-02-03T18:50:53.387Z,95.97
2023-02-03T18:55:56.310Z,95.71
2023-02-03T19:00:59.434Z,95.60
2023-02-03T19:06:02.330Z,95.49
2023-02-03T19:11:05.251Z,95.72
2023-02-03T19:16:09.328Z,96.02
2023-02-03T19:21:13.051Z,96.06
2023-02-03T19:26:15.896Z,96.17
2023-02-03T19:31:18.976Z,96.17
2023-02-03T19:36:21.781Z,96.34
2023-02-03T19:41:27.510Z,96.52
2023-02-03T19:46:32.761Z,96.84
2023-02-03T19:51:36.612Z,97.01
2023-02-03T19:56:39.712Z,96.97
2023-02-03T20:01:43.468Z,96.98
2023-02-03T20:06:46.435Z,96.82
2023-02-03T20:11:49.074Z,96.51
2023-02-03T20:16:52.859Z,96.43
2023-02-03T20:21:55.488Z,96.19
2023-02-03T20:26:58.122Z,96.14
2023-02-03T20:32:01.012Z,96.04
2023-02-03T20:37:04.156Z,95.62
2023-02-03T20:42:16.673Z,95.55
2023-02-03T20:47:20.519Z,95.68
2023-02-03T20:52:23.105Z,95.40
2023-02-03T20:57:25.861Z,95.42
2023-02-03T21:02:51.300Z,95.37
2023-02-03T21:07:54.754Z,95.36
2023-02-03T21:12:58.472Z,95.41
2023-02-03T21:18:01.042Z,95.70
2023-02-03T21:23:09.648Z,95.86
2023-02-03T21:28:24.218Z,96.05
2023-02-03T21:33:29.822Z,96.24
2023-02-03T21:38:33.313Z,96.04
2023-02-03T21:43:36.364Z,96.36
2023-02-03T21:48:40.523Z,96.50
2023-02-03T21:53:49.745Z,96.48
2023-02-03T21:58:57.416Z,96.35
2023-02-03T22:04:02.142Z,96.25
2023-02-03T22:09:04.806Z,96.04
2023-02-03T22:14:08.435Z,95.82
2023-02-03T22:19:11.138Z,95.71
2023-02-03T22:24:15.481Z,95.53
2023-02-03T22:29:18.184Z,95.55
2023-02-03T22:34:21.805Z,95.27
2023-02-03T22:39:24.484Z,95.34
2023-02-03T22:44:27.103Z,95.47
2023-02-03T22:49:29.667Z,95.42
2023-02-03T22:54:32.372Z,95.53
2023-02-03T22:59:35.152Z,95.54
2023-02-03T23:04:37.799Z,95.40
2023-02-03T23:09:40.504Z,95.51
2023-02-03T23:14:43.154Z,95.68
2023-02-03T23:19:45.727Z,95.60
2023-02-03T23:24:48.558Z,95.49
2023-02-03T23:29:51.207Z,95.40
2023-02-03T23:35:11.678Z,95.23
2023-02-03T23:40:15.642Z,95.35
2023-02-03T23:45:18.709Z,95.32
2023-02-03T23:50:21.413Z,95.27
2023-02-03T23:55:24.266Z,95.13
